Time;durP1;ratioP1;P1;durP2;ratioP2;P2;SDS_P1;SDS_P2;PMS_P1;PMS_P2;Temp;Humidity;BMP_temperature;BMP_pressure;BME280_temperature;BME280_humidity;BME280_pressure;Samples;Min_cycle;Max_cycle;Signal;HPM_P1;HPM_P2
2021/12/05 00:22:51;;;;;;;12.00;2.97;;;5.10;89.30;;;;;;5048012;28;20783;-71
2021/12/05 00:25:24;;;;;;;10.05;2.50;;;5.10;89.50;;;;;;5031483;28;20052;-71
2021/12/05 00:28:05;;;;;;;13.25;4.10;;;5.20;89.70;;;;;;5048640;28;20052;-71
2021/12/05 00:39:08;;;;;;;10.20;2.50;;;5.20;90.30;;;;;;5048159;28;20049;-71
2021/12/05 00:41:51;;;;;;;7.15;2.22;;;5.30;90.40;;;;;;5048138;28;20057;-72
2021/12/05 00:47:08;;;;;;;8.70;2.03;;;5.30;90.40;;;;;;5046831;28;20148;-71
2021/12/05 01:00:24;;;;;;;6.45;2.03;;;5.30;90.40;;;;;;5040773;28;20056;-71
2021/12/05 01:06:29;;;;;;;7.68;1.70;;;5.30;90.40;;;;;;5048220;28;20084;-71
2021/12/05 01:14:07;;;;;;;7.72;1.45;;;5.20;90.50;;;;;;5047023;28;20048;-71
2021/12/05 01:16:35;;;;;;;6.45;1.60;;;5.30;90.40;;;;;;5048102;28;20127;-71
2021/12/05 01:19:02;;;;;;;7.38;1.65;;;5.30;90.40;;;;;;5047968;28;20818;-70
2021/12/05 01:21:28;;;;;;;12.52;2.90;;;5.30;90.30;;;;;;5039353;28;20088;-71
2021/12/05 01:23:59;;;;;;;7.63;2.08;;;5.30;90.20;;;;;;5047842;28;20052;-71
2021/12/05 01:26:43;;;;;;;10.27;2.58;;;5.30;90.10;;;;;;5030199;28;20080;-71
2021/12/05 01:29:57;;;;;;;6.53;1.90;;;5.30;90.10;;;;;;5046798;28;20671;-71
2021/12/05 01:32:22;;;;;;;8.35;2.30;;;5.30;90.00;;;;;;5040784;28;20055;-70
2021/12/05 01:35:05;;;;;;;7.68;1.90;;;5.20;89.90;;;;;;5047332;28;20045;-71
2021/12/05 01:38:00;;;;;;;6.30;1.80;;;5.20;89.90;;;;;;5050723;28;20048;-71
2021/12/05 01:54:19;;;;;;;8.52;1.73;;;5.20;89.50;;;;;;5051654;28;20056;-71
2021/12/05 02:32:00;;;;;;;8.40;2.75;;;4.90;88.50;;;;;;5050582;28;20061;-71
2021/12/05 02:41:49;;;;;;;8.75;3.85;;;4.90;88.60;;;;;;5050707;28;20497;-71
2021/12/05 02:46:47;;;;;;;8.70;4.22;;;5.00;88.90;;;;;;5043698;28;20484;-70
2021/12/05 02:49:14;;;;;;;8.30;3.50;;;5.00;88.90;;;;;;5049512;28;20041;-71
2021/12/05 02:51:41;;;;;;;10.48;4.82;;;5.00;89.00;;;;;;5050003;28;20110;-72
2021/12/05 02:54:15;;;;;;;8.18;3.53;;;5.00;88.90;;;;;;5050062;28;20074;-71
2021/12/05 02:56:45;;;;;;;8.68;3.22;;;5.10;89.00;;;;;;5031008;28;20053;-71
2021/12/05 03:02:06;;;;;;;6.40;3.53;;;5.00;89.00;;;;;;5050212;28;20056;-71
2021/12/05 03:04:33;;;;;;;11.25;3.83;;;5.00;89.10;;;;;;5050171;28;20049;-71
2021/12/05 03:07:05;;;;;;;9.35;3.70;;;5.00;89.00;;;;;;5049615;28;20106;-70
2021/12/05 03:09:30;;;;;;;11.25;3.60;;;5.10;89.10;;;;;;5035015;28;20560;-70
2021/12/05 03:11:56;;;;;;;10.20;4.45;;;5.10;89.10;;;;;;5050514;28;20077;-70
2021/12/05 03:14:22;;;;;;;9.20;3.70;;;5.10;89.00;;;;;;5050576;28;20044;-70
2021/12/05 03:16:48;;;;;;;7.65;3.47;;;5.10;88.90;;;;;;5049306;28;20048;-70
2021/12/05 03:19:14;;;;;;;12.18;3.95;;;5.00;88.90;;;;;;5049198;28;20041;-70
2021/12/05 03:21:41;;;;;;;8.43;3.97;;;5.00;89.00;;;;;;5048819;28;20140;-70
2021/12/05 03:24:09;;;;;;;12.82;4.63;;;5.00;88.90;;;;;;5049888;28;20045;-70
2021/12/05 03:26:38;;;;;;;13.10;5.15;;;4.90;88.90;;;;;;5049658;28;20417;-70
2021/12/05 03:29:06;;;;;;;9.02;3.70;;;5.00;88.90;;;;;;5050520;28;20052;-70
2021/12/05 03:31:32;;;;;;;13.27;4.93;;;4.90;88.90;;;;;;5048699;28;20651;-70
2021/12/05 03:33:59;;;;;;;10.63;3.70;;;4.90;88.80;;;;;;5050907;28;20052;-70
2021/12/05 03:36:26;;;;;;;13.40;5.13;;;4.90;88.70;;;;;;5048664;28;20049;-71
2021/12/05 03:38:52;;;;;;;12.13;4.60;;;4.90;88.70;;;;;;5049304;28;20055;-70
2021/12/05 03:41:19;;;;;;;11.15;4.78;;;4.90;88.60;;;;;;5048739;28;20098;-70
2021/12/05 03:43:47;;;;;;;10.95;4.30;;;4.80;88.60;;;;;;5048617;28;20083;-71
2021/12/05 03:46:13;;;;;;;14.15;5.45;;;4.90;88.70;;;;;;5039385;28;20469;-70
2021/12/05 03:48:47;;;;;;;13.65;4.63;;;4.80;88.70;;;;;;5049426;28;20512;-70
2021/12/05 03:51:15;;;;;;;13.10;4.63;;;4.80;88.70;;;;;;5048178;28;20076;-70
2021/12/05 03:53:42;;;;;;;11.65;5.05;;;4.80;88.60;;;;;;5031852;28;20045;-70
2021/12/05 03:56:08;;;;;;;14.82;4.95;;;4.80;88.60;;;;;;5048823;28;20055;-70
2021/12/05 03:58:38;;;;;;;17.98;5.90;;;4.70;88.50;;;;;;5047662;28;20081;-70
2021/12/05 04:01:04;;;;;;;13.27;4.78;;;4.70;88.50;;;;;;5048713;28;20049;-70
2021/12/05 04:03:31;;;;;;;15.10;5.25;;;4.70;88.50;;;;;;5048562;28;20124;-70
2021/12/05 04:05:58;;;;;;;9.05;4.45;;;4.60;88.50;;;;;;5032210;28;20057;-70
2021/12/05 04:08:26;;;;;;;14.80;5.18;;;4.70;88.50;;;;;;5048678;28;20440;-70
2021/12/05 04:10:56;;;;;;;15.23;5.72;;;4.70;88.50;;;;;;5049243;28;20864;-70
2021/12/05 04:13:22;;;;;;;14.68;5.50;;;4.60;88.50;;;;;;5049033;28;20045;-71
2021/12/05 04:15:52;;;;;;;19.63;5.55;;;4.60;88.50;;;;;;5048284;28;20049;-71
2021/12/05 04:18:18;;;;;;;17.92;5.68;;;4.70;88.50;;;;;;5031649;28;20083;-70
2021/12/05 04:20:45;;;;;;;18.42;6.00;;;4.60;88.50;;;;;;5048339;28;20473;-70
2021/12/05 04:23:11;;;;;;;18.58;5.75;;;4.60;88.40;;;;;;5048298;28;20091;-70
2021/12/05 04:25:38;;;;;;;21.70;6.82;;;4.60;88.40;;;;;;5047769;28;20616;-70
2021/12/05 04:28:07;;;;;;;15.85;5.63;;;4.60;88.40;;;;;;5042040;28;20041;-70
2021/12/05 04:30:33;;;;;;;18.13;6.63;;;4.60;88.40;;;;;;5049473;28;20493;-70
2021/12/05 04:32:59;;;;;;;27.13;7.53;;;4.60;88.40;;;;;;5047907;28;20132;-70
2021/12/05 04:35:24;;;;;;;20.88;6.13;;;4.60;88.40;;;;;;5048181;28;20051;-70
2021/12/05 04:37:51;;;;;;;23.20;7.07;;;4.70;88.40;;;;;;5048018;28;20045;-70
2021/12/05 04:40:16;;;;;;;24.73;7.25;;;4.70;88.40;;;;;;5049608;28;20041;-70
2021/12/05 04:42:42;;;;;;;18.40;5.72;;;4.70;88.40;;;;;;5048232;28;20107;-70
2021/12/05 04:45:21;;;;;;;19.08;6.15;;;4.70;88.40;;;;;;5047911;28;20386;-70
2021/12/05 04:47:47;;;;;;;22.77;6.95;;;4.80;88.50;;;;;;5046970;28;20132;-70
2021/12/05 04:50:14;;;;;;;28.55;8.52;;;4.70;88.50;;;;;;5047878;28;20124;-70
2021/12/05 04:52:40;;;;;;;20.10;7.40;;;4.70;88.50;;;;;;5048181;28;20124;-70
2021/12/05 04:55:07;;;;;;;20.63;6.38;;;4.80;88.60;;;;;;5047821;28;20048;-72
2021/12/05 04:57:33;;;;;;;15.68;6.03;;;4.80;88.60;;;;;;5047869;28;20053;-70
2021/12/05 04:59:59;;;;;;;19.80;7.68;;;4.80;88.60;;;;;;5047899;28;20132;-70
2021/12/05 05:02:25;;;;;;;23.95;6.53;;;4.90;88.60;;;;;;5048088;28;20049;-71
2021/12/05 05:04:50;;;;;;;21.73;6.63;;;4.90;88.50;;;;;;5048148;28;20057;-70
2021/12/05 05:07:26;;;;;;;22.85;7.70;;;4.90;88.60;;;;;;5047502;28;20045;-70
2021/12/05 05:09:59;;;;;;;31.38;9.07;;;4.90;88.60;;;;;;5047597;28;20049;-70
2021/12/05 05:12:25;;;;;;;21.92;7.00;;;4.90;88.60;;;;;;5060416;28;20049;-70
2021/12/05 05:14:53;;;;;;;16.27;7.50;;;4.80;88.50;;;;;;5061488;28;20037;-71
2021/12/05 05:17:19;;;;;;;21.88;6.13;;;4.90;88.50;;;;;;5047452;28;20053;-70
2021/12/05 05:19:50;;;;;;;24.27;6.78;;;4.80;88.50;;;;;;5046529;28;20045;-70
2021/12/05 05:25:13;;;;;;;23.70;7.55;;;4.80;88.30;;;;;;5047075;28;20103;-70
2021/12/05 05:46:38;;;;;;;22.75;6.60;;;4.60;88.00;;;;;;5047206;28;20140;-71
2021/12/05 05:51:44;;;;;;;29.02;7.63;;;4.50;88.10;;;;;;5047350;28;20045;-71
2021/12/05 05:54:10;;;;;;;21.45;8.88;;;4.50;88.00;;;;;;5047539;28;20045;-70
2021/12/05 05:56:38;;;;;;;15.15;4.80;;;4.40;87.90;;;;;;5047410;28;20086;-70
2021/12/05 05:59:22;;;;;;;14.27;6.10;;;4.30;87.80;;;;;;5046433;28;20073;-70
2021/12/05 06:04:17;;;;;;;16.80;6.35;;;4.30;88.00;;;;;;5047239;28;20151;-71
2021/12/05 06:06:43;;;;;;;22.00;6.93;;;4.30;88.00;;;;;;5047388;28;20152;-70
2021/12/05 06:09:08;;;;;;;17.10;5.28;;;4.30;87.90;;;;;;5046466;28;20136;-70
2021/12/05 06:11:34;;;;;;;14.73;5.90;;;4.30;87.90;;;;;;5047150;28;20040;-70
2021/12/05 06:14:00;;;;;;;12.20;4.70;;;4.30;87.80;;;;;;5041821;28;20107;-70
2021/12/05 06:16:26;;;;;;;13.48;5.03;;;4.30;87.80;;;;;;5047316;28;20087;-69
2021/12/05 06:18:52;;;;;;;17.90;5.60;;;4.30;87.80;;;;;;5047955;28;20065;-69
2021/12/05 06:21:17;;;;;;;14.35;4.85;;;4.30;87.70;;;;;;5048454;28;20045;-70
2021/12/05 06:23:43;;;;;;;14.40;5.57;;;4.30;87.70;;;;;;5050261;28;20071;-70
2021/12/05 06:26:14;;;;;;;14.60;4.55;;;4.30;87.70;;;;;;5050874;28;20053;-70
2021/12/05 06:28:46;;;;;;;17.73;5.10;;;4.30;87.70;;;;;;5050519;28;20049;-70
2021/12/05 06:31:26;;;;;;;14.67;4.57;;;4.30;87.60;;;;;;5050427;28;20045;-71
2021/12/05 06:47:21;;;;;;;10.13;4.72;;;4.30;87.70;;;;;;5049934;28;20657;-71
2021/12/05 06:49:46;;;;;;;19.13;4.72;;;4.30;87.70;;;;;;5048432;28;20048;-71
2021/12/05 06:52:12;;;;;;;13.90;3.97;;;4.40;87.80;;;;;;5044125;28;20183;-70
2021/12/05 06:54:39;;;;;;;11.15;4.75;;;4.30;87.80;;;;;;5047154;28;20075;-70
2021/12/05 06:57:06;;;;;;;14.95;5.53;;;4.40;87.90;;;;;;5049302;28;20140;-71
2021/12/05 06:59:33;;;;;;;15.80;5.00;;;4.30;87.90;;;;;;5048318;28;20046;-71
2021/12/05 07:02:00;;;;;;;15.27;4.70;;;4.40;88.10;;;;;;5049271;28;20048;-71
2021/12/05 07:07:04;;;;;;;21.05;4.15;;;4.40;88.30;;;;;;5050801;28;20142;-70
2021/12/05 07:09:30;;;;;;;13.52;4.63;;;4.50;88.30;;;;;;5040922;28;20421;-71
2021/12/05 07:12:33;;;;;;;15.35;4.47;;;4.50;88.30;;;;;;5048639;28;20041;-69
2021/12/05 07:14:50;;;;;;;11.70;3.63;;;4.60;88.30;;;;;;5040525;28;20049;-78
2021/12/05 07:20:17;;;;;;;12.82;3.83;;;6.60;92.90;;;;;;5050216;28;20048;-79
2021/12/05 07:25:43;;;;;;;15.20;4.57;;;8.20;81.80;;;;;;5051187;28;20049;-79
2021/12/05 07:41:54;;;;;;;16.23;4.00;;;9.80;72.50;;;;;;5047339;28;20083;-79
2021/12/05 07:44:20;;;;;;;10.68;4.30;;;9.90;72.00;;;;;;5050836;28;20045;-79
2021/12/05 07:46:46;;;;;;;18.08;6.32;;;10.00;71.60;;;;;;5049118;28;20093;-78
2021/12/05 07:49:14;;;;;;;10.18;4.43;;;10.00;71.30;;;;;;5049955;28;20083;-79
2021/12/05 07:51:41;;;;;;;13.45;4.13;;;10.00;71.10;;;;;;5051167;28;20518;-79
2021/12/05 07:54:12;;;;;;;10.43;4.10;;;10.00;71.00;;;;;;5050963;28;20079;-78
2021/12/05 07:56:47;;;;;;;12.75;4.05;;;10.00;71.10;;;;;;5050159;28;20044;-79
2021/12/05 07:59:32;;;;;;;11.15;3.63;;;10.00;71.00;;;;;;5049212;28;20102;-79
2021/12/05 08:16:06;;;;;;;13.00;4.50;;;8.30;76.30;;;;;;5048719;28;20048;-71
2021/12/05 08:18:28;;;;;;;17.50;4.75;;;8.00;77.30;;;;;;5047025;28;20565;-70
2021/12/05 08:20:54;;;;;;;11.32;3.83;;;7.60;78.10;;;;;;5046113;28;20048;-71
2021/12/05 08:23:22;;;;;;;12.60;4.40;;;7.40;78.80;;;;;;5031607;28;20404;-71
2021/12/05 08:25:55;;;;;;;13.23;4.82;;;7.10;79.40;;;;;;5052616;28;20155;-71
2021/12/05 08:37:18;;;;;;;12.02;5.18;;;6.40;81.60;;;;;;5043000;28;20102;-71
2021/12/05 08:42:28;;;;;;;11.02;5.20;;;6.20;82.60;;;;;;5046695;28;20461;-70
2021/12/05 10:03:22;;;;;;;11.57;6.93;;;5.60;87.30;;;;;;5052086;28;20041;-67
2021/12/05 10:11:29;;;;;;;19.13;7.65;;;5.60;87.40;;;;;;5052189;28;20044;-67
2021/12/05 10:17:19;;;;;;;18.52;8.00;;;5.60;87.50;;;;;;5049090;28;20041;-67
2021/12/05 10:37:30;;;;;;;21.97;8.23;;;5.80;87.50;;;;;;5050757;28;20135;-67
2021/12/05 10:40:08;;;;;;;17.80;7.43;;;5.90;87.20;;;;;;5040597;28;20811;-67
2021/12/05 10:42:54;;;;;;;14.35;7.47;;;5.80;87.40;;;;;;5040363;28;20044;-66
2021/12/05 10:45:19;;;;;;;11.25;6.68;;;5.80;87.40;;;;;;5045697;28;20033;-67
2021/12/05 10:47:52;;;;;;;14.05;8.07;;;5.80;87.40;;;;;;5031151;28;20049;-69
2021/12/05 10:50:44;;;;;;;13.70;8.00;;;5.80;87.40;;;;;;5049099;28;20049;-67
2021/12/05 10:53:35;;;;;;;16.05;7.40;;;5.90;87.20;;;;;;5048749;28;20049;-68
2021/12/05 10:56:22;;;;;;;20.00;7.72;;;5.90;87.30;;;;;;5050825;28;20049;-67
2021/12/05 10:58:50;;;;;;;14.48;7.65;;;5.90;87.30;;;;;;5046671;28;20124;-67
2021/12/05 11:01:20;;;;;;;22.27;8.38;;;5.80;87.40;;;;;;5046657;28;20059;-67
2021/12/05 11:03:49;;;;;;;17.67;8.25;;;5.90;87.40;;;;;;5050026;28;20163;-67
2021/12/05 11:06:21;;;;;;;21.48;7.43;;;5.90;87.50;;;;;;5046833;28;20060;-67
2021/12/05 11:08:53;;;;;;;18.98;7.47;;;5.90;87.50;;;;;;5042072;28;20056;-67
2021/12/05 11:11:19;;;;;;;15.23;6.80;;;5.90;87.50;;;;;;5032668;28;20049;-67
2021/12/05 11:13:46;;;;;;;12.82;7.00;;;5.90;87.50;;;;;;5048184;28;20048;-67
2021/12/05 11:17:16;;;;;;;16.83;7.80;;;5.90;87.50;;;;;;5048914;28;20527;-67
2021/12/05 11:19:47;;;;;;;14.55;7.25;;;6.00;87.30;;;;;;4991973;28;20315;-67
2021/12/05 11:22:23;;;;;;;12.93;7.00;;;5.90;87.60;;;;;;4986105;28;20407;-67
2021/12/05 11:24:55;;;;;;;14.38;6.95;;;5.90;87.50;;;;;;5026235;28;20572;-67
2021/12/05 11:27:27;;;;;;;11.50;6.90;;;5.90;87.60;;;;;;5045843;28;20053;-67
2021/12/05 11:29:59;;;;;;;11.13;6.32;;;5.90;87.50;;;;;;5048910;28;20044;-67
2021/12/05 11:32:42;;;;;;;11.23;5.93;;;5.90;87.50;;;;;;5041345;28;20068;-66
2021/12/05 11:35:19;;;;;;;10.98;6.18;;;5.90;87.50;;;;;;5048363;28;20504;-67
2021/12/05 11:38:02;;;;;;;15.05;7.45;;;5.90;87.60;;;;;;5021060;28;20057;-67
2021/12/05 11:40:41;;;;;;;13.48;6.05;;;5.90;87.60;;;;;;5042748;28;20037;-67
2021/12/05 11:43:07;;;;;;;10.57;6.40;;;5.80;87.60;;;;;;5042325;28;20044;-67
2021/12/05 11:45:59;;;;;;;12.57;6.68;;;5.90;87.70;;;;;;5049674;28;20041;-67
2021/12/05 11:48:36;;;;;;;8.80;5.88;;;5.90;87.60;;;;;;5041983;28;20061;-67
2021/12/05 11:51:28;;;;;;;17.00;6.88;;;5.90;87.70;;;;;;5047830;28;20489;-67
2021/12/05 11:54:11;;;;;;;15.60;6.00;;;5.90;87.70;;;;;;5050275;28;20125;-67
2021/12/05 11:56:50;;;;;;;12.80;6.07;;;5.90;87.70;;;;;;5032926;28;20402;-67
2021/12/05 11:59:22;;;;;;;17.38;7.38;;;5.90;87.70;;;;;;5029782;28;20058;-67
2021/12/05 12:01:53;;;;;;;12.00;6.05;;;5.90;87.70;;;;;;5048689;28;20132;-67
2021/12/05 12:04:22;;;;;;;11.40;5.60;;;5.90;87.70;;;;;;5047748;28;20056;-69
2021/12/05 12:07:11;;;;;;;14.05;6.00;;;5.80;87.70;;;;;;5015726;28;20053;-67
2021/12/05 12:09:38;;;;;;;10.65;5.10;;;5.90;87.70;;;;;;5041551;28;20532;-67
2021/12/05 12:12:04;;;;;;;14.30;5.43;;;5.80;87.80;;;;;;5045189;28;20497;-68
2021/12/05 12:14:30;;;;;;;12.52;5.50;;;5.90;87.80;;;;;;5047077;28;20094;-67
2021/12/05 12:16:57;;;;;;;12.23;5.13;;;5.90;87.80;;;;;;5047729;28;20623;-67
2021/12/05 12:19:23;;;;;;;10.55;5.05;;;5.90;87.80;;;;;;5042093;28;20049;-68
2021/12/05 12:21:52;;;;;;;10.50;5.68;;;5.90;87.80;;;;;;5031568;28;20055;-68
2021/12/05 12:24:19;;;;;;;21.40;5.65;;;6.00;87.80;;;;;;5049851;28;20057;-68
2021/12/05 12:26:45;;;;;;;9.38;5.50;;;6.00;87.80;;;;;;5049534;28;20041;-68
2021/12/05 12:29:12;;;;;;;10.32;5.30;;;6.00;87.80;;;;;;5049877;28;20421;-69
2021/12/05 12:31:44;;;;;;;11.93;5.97;;;5.90;87.80;;;;;;5049385;28;20061;-68
2021/12/05 12:34:17;;;;;;;10.95;5.30;;;6.00;87.80;;;;;;5049300;28;20037;-68
2021/12/05 12:36:51;;;;;;;12.43;5.50;;;6.00;87.90;;;;;;5048849;28;20057;-68
2021/12/05 12:39:18;;;;;;;14.57;6.63;;;6.00;88.00;;;;;;5049449;28;20631;-68
2021/12/05 12:42:05;;;;;;;13.05;5.13;;;6.00;87.90;;;;;;5049414;28;20049;-68
2021/12/05 12:44:31;;;;;;;11.02;5.60;;;6.00;87.90;;;;;;5044554;28;20053;-68
2021/12/05 12:47:03;;;;;;;11.45;5.32;;;6.00;88.00;;;;;;5048346;28;20060;-68
2021/12/05 12:49:31;;;;;;;9.88;4.85;;;6.00;88.00;;;;;;5049152;28;20041;-68
2021/12/05 12:52:14;;;;;;;10.55;5.03;;;6.00;88.00;;;;;;5030050;28;20486;-69
2021/12/05 12:54:43;;;;;;;11.35;5.50;;;6.10;88.00;;;;;;5048075;28;20049;-69
2021/12/05 12:57:18;;;;;;;9.25;4.75;;;6.10;88.10;;;;;;5048028;28;20051;-69
2021/12/05 12:59:58;;;;;;;8.93;4.60;;;6.10;88.00;;;;;;5045604;28;20041;-68
2021/12/05 13:11:21;;;;;;;10.60;4.50;;;6.10;88.00;;;;;;5040016;28;20044;-68
2021/12/05 13:14:00;;;;;;;12.40;4.57;;;6.10;88.00;;;;;;5045851;28;20542;-68
2021/12/05 13:16:34;;;;;;;7.18;4.80;;;6.10;88.00;;;;;;5039301;28;20041;-68
2021/12/05 13:19:06;;;;;;;12.90;5.68;;;6.10;88.00;;;;;;5033815;28;20055;-68
2021/12/05 13:21:38;;;;;;;10.63;5.65;;;6.10;88.10;;;;;;5040238;28;20068;-68
2021/12/05 13:24:28;;;;;;;14.35;6.45;;;6.20;88.00;;;;;;5049051;28;20128;-68
2021/12/05 13:27:04;;;;;;;9.60;4.70;;;6.20;87.90;;;;;;5036268;28;20056;-68
2021/12/05 13:29:32;;;;;;;11.70;5.55;;;6.20;88.00;;;;;;5044734;28;20140;-68
2021/12/05 13:32:13;;;;;;;11.23;4.63;;;6.20;88.00;;;;;;5033634;28;20037;-68
2021/12/05 13:34:48;;;;;;;14.05;4.97;;;6.30;88.00;;;;;;5031831;28;20417;-68
2021/12/05 13:37:15;;;;;;;15.02;5.40;;;6.30;88.00;;;;;;5049335;28;20139;-68
2021/12/05 13:40:29;;;;;;;11.80;5.55;;;6.30;88.00;;;;;;5048480;28;20053;-69
2021/12/05 13:43:07;;;;;;;11.23;5.05;;;6.30;88.00;;;;;;4998224;28;20044;-68
2021/12/05 13:45:41;;;;;;;8.73;5.07;;;6.40;88.70;;;;;;5029967;28;20068;-68
2021/12/05 13:48:13;;;;;;;9.90;4.40;;;6.50;88.30;;;;;;5029807;28;20041;-68
2021/12/05 13:50:49;;;;;;;10.57;5.63;;;6.50;87.90;;;;;;5046274;28;20092;-68
2021/12/05 13:53:21;;;;;;;9.95;5.20;;;6.50;87.80;;;;;;5037339;28;20112;-68
2021/12/05 13:55:49;;;;;;;8.43;4.97;;;6.40;87.70;;;;;;5028203;28;20103;-68
2021/12/05 13:58:17;;;;;;;9.43;5.68;;;6.40;87.70;;;;;;5038315;28;20055;-68
2021/12/05 14:00:45;;;;;;;11.27;5.32;;;6.50;87.80;;;;;;5046309;28;20076;-68
2021/12/05 14:03:11;;;;;;;13.68;5.65;;;6.40;87.80;;;;;;5046706;28;20037;-68
2021/12/05 14:05:46;;;;;;;11.27;5.22;;;6.50;87.70;;;;;;5048754;28;20041;-67
2021/12/05 14:08:13;;;;;;;12.23;4.85;;;6.50;87.70;;;;;;5048405;28;20053;-70
2021/12/05 14:10:44;;;;;;;13.90;4.68;;;6.50;87.70;;;;;;5047731;28;20133;-68
2021/12/05 14:13:10;;;;;;;10.18;5.30;;;6.60;87.70;;;;;;5041760;28;20041;-68
2021/12/05 14:15:36;;;;;;;8.27;4.75;;;6.50;87.70;;;;;;5043460;28;20513;-68
2021/12/05 14:18:02;;;;;;;9.48;4.72;;;6.50;87.70;;;;;;5048263;28;20063;-68
2021/12/05 14:20:29;;;;;;;8.95;4.35;;;6.50;87.70;;;;;;5048453;28;20386;-68
2021/12/05 14:22:57;;;;;;;12.43;4.65;;;6.50;87.70;;;;;;5043647;28;20064;-68
2021/12/05 14:25:25;;;;;;;9.20;4.10;;;6.50;87.70;;;;;;5045570;28;20073;-68
2021/12/05 14:27:56;;;;;;;14.18;4.43;;;6.40;87.70;;;;;;5039336;28;20049;-68
2021/12/05 14:30:25;;;;;;;11.03;5.90;;;6.40;87.70;;;;;;5046047;28;20167;-68
2021/12/05 14:32:58;;;;;;;9.85;4.50;;;6.40;87.70;;;;;;5048238;28;20049;-68
2021/12/05 14:35:32;;;;;;;11.85;5.15;;;6.40;87.80;;;;;;5045760;28;20453;-67
2021/12/05 14:38:03;;;;;;;8.95;4.00;;;6.40;87.70;;;;;;5044600;28;20191;-68
2021/12/05 14:40:31;;;;;;;6.25;4.65;;;6.40;87.80;;;;;;5034051;28;20048;-67
2021/12/05 14:43:01;;;;;;;7.90;3.80;;;6.40;87.80;;;;;;5048181;28;20052;-68
2021/12/05 14:45:28;;;;;;;9.88;4.43;;;6.40;87.80;;;;;;5033234;28;20049;-68
2021/12/05 14:47:56;;;;;;;7.15;4.03;;;6.40;87.80;;;;;;5050853;28;20437;-68
2021/12/05 14:50:31;;;;;;;6.78;3.83;;;6.40;87.70;;;;;;5047059;28;20120;-68
2021/12/05 14:53:00;;;;;;;5.97;4.28;;;6.40;87.70;;;;;;5030409;28;20077;-67
2021/12/05 14:55:28;;;;;;;8.50;5.50;;;6.30;87.70;;;;;;5048726;28;20069;-69
2021/12/05 14:58:00;;;;;;;11.10;4.00;;;6.40;87.70;;;;;;5045750;28;20049;-67
2021/12/05 15:00:33;;;;;;;8.65;5.85;;;6.30;87.80;;;;;;5048300;28;20037;-67
2021/12/05 15:03:13;;;;;;;13.30;4.90;;;6.30;87.80;;;;;;5043123;28;20401;-67
2021/12/05 15:05:42;;;;;;;11.52;6.35;;;6.30;87.80;;;;;;5050165;28;20040;-68
2021/12/05 15:08:13;;;;;;;9.85;4.80;;;6.30;87.70;;;;;;5050084;28;20045;-67
2021/12/05 15:10:46;;;;;;;9.70;4.50;;;6.30;87.70;;;;;;5049872;28;20519;-67
2021/12/05 15:13:13;;;;;;;8.77;4.95;;;6.20;87.80;;;;;;5049732;28;20033;-68
2021/12/05 15:15:39;;;;;;;10.20;5.32;;;6.20;87.80;;;;;;5049575;28;21465;-68
2021/12/05 15:18:05;;;;;;;12.20;4.78;;;6.20;87.90;;;;;;5050561;28;20052;-67
2021/12/05 15:20:36;;;;;;;8.27;4.70;;;6.20;87.80;;;;;;5039918;28;20500;-67
2021/12/05 15:23:09;;;;;;;17.20;7.28;;;6.10;87.70;;;;;;5037498;28;20048;-67
2021/12/05 15:25:39;;;;;;;8.50;4.68;;;6.10;87.80;;;;;;5045471;28;20033;-68
2021/12/05 15:28:06;;;;;;;12.05;5.28;;;6.10;88.30;;;;;;5046185;28;20122;-68
2021/12/05 15:30:36;;;;;;;10.15;5.22;;;6.20;88.00;;;;;;5046372;28;20409;-68
2021/12/05 15:33:06;;;;;;;12.95;5.53;;;6.10;87.70;;;;;;5045600;28;20140;-68
2021/12/05 15:35:32;;;;;;;12.45;5.63;;;6.10;87.70;;;;;;5036334;28;20045;-68
2021/12/05 15:38:07;;;;;;;12.55;5.68;;;6.10;87.70;;;;;;5043663;28;20041;-68
2021/12/05 15:40:36;;;;;;;10.95;4.90;;;6.10;87.80;;;;;;5027968;28;20045;-69
2021/12/05 15:43:08;;;;;;;9.00;4.53;;;6.00;87.80;;;;;;5049837;28;20120;-69
2021/12/05 15:45:34;;;;;;;;;;;6.10;87.80;;;;;;5049550;28;20045;-69
2021/12/05 15:48:00;;;;;;;10.98;5.32;;;6.00;87.80;;;;;;5047493;28;20310;-69
2021/12/05 15:50:28;;;;;;;11.93;5.47;;;6.00;87.90;;;;;;5047132;28;20037;-69
2021/12/05 15:53:00;;;;;;;12.40;5.60;;;6.00;87.90;;;;;;5046174;28;20492;-69
2021/12/05 15:55:40;;;;;;;7.53;4.88;;;6.00;87.90;;;;;;5036386;28;20041;-69
2021/12/05 15:58:09;;;;;;;11.25;5.35;;;6.10;87.90;;;;;;5044797;28;20179;-69
2021/12/05 16:00:45;;;;;;;11.45;5.70;;;6.00;87.90;;;;;;5042117;28;20049;-69
2021/12/05 16:03:23;;;;;;;10.10;5.53;;;6.10;87.80;;;;;;5048774;28;20918;-69
2021/12/05 16:05:59;;;;;;;8.02;2.80;;;6.10;88.30;;;;;;5046779;28;20127;-70
2021/12/05 16:08:29;;;;;;;16.85;6.30;;;6.40;91.00;;;;;;5046387;28;20582;-70
2021/12/05 16:10:58;;;;;;;14.40;6.45;;;6.50;89.30;;;;;;5049960;28;20041;-69
2021/12/05 16:13:36;;;;;;;10.20;5.70;;;6.40;88.20;;;;;;5042684;28;20128;-70
2021/12/05 16:16:07;;;;;;;10.75;5.53;;;6.30;87.90;;;;;;5037055;28;20045;-69
2021/12/05 16:18:35;;;;;;;10.02;6.13;;;6.20;87.90;;;;;;5040220;28;20502;-69
2021/12/05 16:21:05;;;;;;;8.98;5.63;;;6.10;87.60;;;;;;5037670;28;20045;-70
2021/12/05 16:23:40;;;;;;;10.77;6.05;;;6.00;87.80;;;;;;5036797;28;20127;-68
2021/12/05 16:26:13;;;;;;;16.92;6.10;;;5.90;87.90;;;;;;5037159;28;20409;-69
2021/12/05 16:28:41;;;;;;;13.70;6.07;;;5.90;88.00;;;;;;5042558;28;20588;-69
2021/12/05 16:31:34;;;;;;;9.30;6.75;;;5.80;88.00;;;;;;5045436;28;20068;-69
2021/12/05 16:34:12;;;;;;;15.63;6.70;;;5.70;88.00;;;;;;5045839;28;20046;-67
2021/12/05 16:36:47;;;;;;;16.70;6.72;;;5.70;88.30;;;;;;5037472;28;20057;-67
2021/12/05 16:39:20;;;;;;;14.75;6.32;;;5.70;88.30;;;;;;5048168;28;20045;-68
2021/12/05 16:41:53;;;;;;;13.32;5.88;;;5.80;88.30;;;;;;5034675;28;20111;-68
2021/12/05 16:44:29;;;;;;;19.15;8.25;;;5.80;88.30;;;;;;5040089;28;20052;-69
2021/12/05 16:47:00;;;;;;;14.25;6.43;;;5.80;88.20;;;;;;5029888;28;20083;-68
2021/12/05 16:49:34;;;;;;;9.20;6.10;;;5.80;88.10;;;;;;5047987;28;20600;-68
2021/12/05 16:52:01;;;;;;;13.55;6.88;;;5.80;88.00;;;;;;5033026;28;20036;-67
2021/12/05 16:54:36;;;;;;;14.65;7.40;;;5.80;88.10;;;;;;5047503;28;20502;-67
2021/12/05 16:57:10;;;;;;;14.15;6.80;;;5.80;88.10;;;;;;5049457;28;20037;-67
2021/12/05 16:59:51;;;;;;;14.35;7.30;;;5.80;88.00;;;;;;5035346;28;20668;-67
2021/12/05 17:02:34;;;;;;;14.32;7.85;;;5.80;88.00;;;;;;5028948;28;20045;-67
2021/12/05 17:05:01;;;;;;;19.20;8.82;;;5.70;88.10;;;;;;5033737;28;20049;-67
2021/12/05 17:07:43;;;;;;;17.27;8.25;;;5.70;88.20;;;;;;5040352;28;20045;-67
2021/12/05 17:10:31;;;;;;;20.42;8.23;;;5.70;88.20;;;;;;5031341;28;20148;-67
2021/12/05 17:13:07;;;;;;;17.45;8.60;;;5.70;88.30;;;;;;5047546;28;20059;-67
2021/12/05 17:15:36;;;;;;;15.73;9.10;;;5.60;88.50;;;;;;5046181;28;20068;-67
2021/12/05 17:18:12;;;;;;;17.70;9.38;;;5.60;88.40;;;;;;5048500;28;20136;-67
2021/12/05 17:20:48;;;;;;;13.10;8.50;;;5.70;88.50;;;;;;5042343;28;20032;-67
2021/12/05 17:23:34;;;;;;;13.95;8.65;;;5.70;88.50;;;;;;5038986;28;20049;-67
2021/12/05 17:26:19;;;;;;;16.40;10.65;;;5.70;88.50;;;;;;5045014;28;20544;-65
2021/12/05 17:29:01;;;;;;;15.63;10.02;;;5.70;88.60;;;;;;5029949;28;20049;-67
2021/12/05 17:31:35;;;;;;;20.70;9.80;;;5.70;88.80;;;;;;5046278;28;20041;-66
2021/12/05 17:34:06;;;;;;;22.85;12.05;;;5.70;88.70;;;;;;5030200;28;20536;-67
2021/12/05 17:36:38;;;;;;;19.60;11.37;;;5.70;88.50;;;;;;5039382;28;20089;-67
2021/12/05 17:39:26;;;;;;;22.08;12.10;;;5.60;88.50;;;;;;5048623;28;20128;-67
2021/12/05 17:41:56;;;;;;;21.52;12.20;;;5.60;88.50;;;;;;5045681;28;20037;-67
2021/12/05 17:44:22;;;;;;;23.17;12.55;;;5.60;88.50;;;;;;5039361;28;20045;-67
2021/12/05 17:46:55;;;;;;;22.08;12.75;;;5.60;88.50;;;;;;5036809;28;20041;-67
2021/12/05 17:49:23;;;;;;;24.63;14.02;;;5.60;88.70;;;;;;5041896;28;20045;-67
2021/12/05 17:51:49;;;;;;;26.90;14.75;;;5.50;88.80;;;;;;5048203;28;20127;-67
2021/12/05 17:54:50;;;;;;;22.27;15.10;;;5.40;88.90;;;;;;5043260;28;20208;-67
2021/12/05 17:57:14;;;;;;;25.27;14.73;;;5.50;88.90;;;;;;5043835;28;20045;-67
2021/12/05 18:05:10;;;;;;;26.60;16.35;;;5.40;88.90;;;;;;5033322;28;20050;-66
2021/12/05 18:07:36;;;;;;;25.77;15.82;;;5.30;89.10;;;;;;5046626;28;20106;-67
2021/12/05 18:10:02;;;;;;;27.23;17.20;;;5.30;89.30;;;;;;5044362;28;20084;-67
2021/12/05 18:12:36;;;;;;;23.75;16.77;;;5.30;89.20;;;;;;5046384;28;20045;-67
2021/12/05 18:15:20;;;;;;;22.63;15.00;;;5.30;89.20;;;;;;5047378;28;20356;-66
2021/12/05 18:17:46;;;;;;;25.70;15.52;;;5.30;89.30;;;;;;5049067;28;20051;-66
2021/12/05 18:20:15;;;;;;;25.48;15.40;;;5.30;89.10;;;;;;5051325;28;20032;-67
2021/12/05 18:22:41;;;;;;;23.05;16.02;;;5.30;89.10;;;;;;5050434;28;20425;-66
2021/12/05 18:25:09;;;;;;;29.08;15.63;;;5.30;89.10;;;;;;5050752;28;20410;-66
2021/12/05 18:27:36;;;;;;;24.30;15.50;;;5.30;89.10;;;;;;5048678;28;20071;-67
2021/12/05 18:30:05;;;;;;;24.13;16.17;;;5.30;89.10;;;;;;5051426;28;20045;-66
2021/12/05 18:32:31;;;;;;;25.38;16.35;;;5.30;89.10;;;;;;5050092;28;20041;-67